<?xml version="1.0" encoding="UTF-8" standalone="no" ?>
<gpx xmlns="http://www.topografix.com/GPX/1/1" xmlns:xsi="http://www.w3.org/2001/XMLSchema-instance" xsi:schemaLocation="http://www.topografix.com/GPX/1/1 http://www.topografix.com/GPX/1/1/gpx.xsd" version="1.1" creator="VisuGPX - https://www.visugpx.com">
  <metadata>
    <name>Saint-Antonin du Var: La Roque Senglé</name>
    <desc><![CDATA[83 En forêt de Ste Foy entre Lorgues et St Antonin]]></desc>
  </metadata>
  <trk>
    <name><![CDATA[St AntoninLorgues Roque Senglé]]></name>
    <trkseg>
      <trkpt lat="43.50371" lon="6.31683">
        <ele>247.2</ele>
        <time>2015-02-25T11:59:44Z</time>
      </trkpt>
      <trkpt lat="43.50354" lon="6.31676">
        <ele>246.5</ele>
        <time>2015-02-25T12:01:35Z</time>
      </trkpt>
      <trkpt lat="43.50371" lon="6.31669">
        <ele>248.8</ele>
        <time>2015-02-25T12:14:02Z</time>
      </trkpt>
      <trkpt lat="43.50388" lon="6.31671">
        <ele>249.5</ele>
        <time>2015-02-25T12:14:31Z</time>
      </trkpt>
      <trkpt lat="43.50405" lon="6.31668">
        <ele>251.7</ele>
        <time>2015-02-25T12:15:01Z</time>
      </trkpt>
      <trkpt lat="43.50417" lon="6.31652">
        <ele>252.3</ele>
        <time>2015-02-25T12:15:16Z</time>
      </trkpt>
      <trkpt lat="43.5043" lon="6.31636">
        <ele>252.8</ele>
        <time>2015-02-25T12:15:30Z</time>
      </trkpt>
      <trkpt lat="43.50442" lon="6.31619">
        <ele>253.7</ele>
        <time>2015-02-25T12:15:43Z</time>
      </trkpt>
      <trkpt lat="43.5045" lon="6.31598">
        <ele>254.8</ele>
        <time>2015-02-25T12:15:59Z</time>
      </trkpt>
      <trkpt lat="43.5046" lon="6.31578">
        <ele>255.2</ele>
        <time>2015-02-25T12:16:13Z</time>
      </trkpt>
      <trkpt lat="43.50471" lon="6.31559">
        <ele>256.1</ele>
        <time>2015-02-25T12:16:27Z</time>
      </trkpt>
      <trkpt lat="43.50482" lon="6.31541">
        <ele>257.3</ele>
        <time>2015-02-25T12:16:42Z</time>
      </trkpt>
      <trkpt lat="43.50493" lon="6.31523">
        <ele>257.4</ele>
        <time>2015-02-25T12:16:55Z</time>
      </trkpt>
      <trkpt lat="43.50501" lon="6.31503">
        <ele>257.7</ele>
        <time>2015-02-25T12:17:08Z</time>
      </trkpt>
      <trkpt lat="43.50509" lon="6.31481">
        <ele>258.6</ele>
        <time>2015-02-25T12:17:22Z</time>
      </trkpt>
      <trkpt lat="43.50518" lon="6.3146">
        <ele>260</ele>
        <time>2015-02-25T12:17:37Z</time>
      </trkpt>
      <trkpt lat="43.50529" lon="6.31441">
        <ele>260.9</ele>
        <time>2015-02-25T12:17:52Z</time>
      </trkpt>
      <trkpt lat="43.50542" lon="6.31424">
        <ele>261.3</ele>
        <time>2015-02-25T12:18:06Z</time>
      </trkpt>
      <trkpt lat="43.50555" lon="6.31409">
        <ele>261.5</ele>
        <time>2015-02-25T12:18:20Z</time>
      </trkpt>
      <trkpt lat="43.50569" lon="6.31394">
        <ele>262</ele>
        <time>2015-02-25T12:18:33Z</time>
      </trkpt>
      <trkpt lat="43.50586" lon="6.31394">
        <ele>263</ele>
        <time>2015-02-25T12:18:50Z</time>
      </trkpt>
      <trkpt lat="43.506" lon="6.3141">
        <ele>265.1</ele>
        <time>2015-02-25T12:19:06Z</time>
      </trkpt>
      <trkpt lat="43.50613" lon="6.31425">
        <ele>267.6</ele>
        <time>2015-02-25T12:19:24Z</time>
      </trkpt>
      <trkpt lat="43.5063" lon="6.3143">
        <ele>269.6</ele>
        <time>2015-02-25T12:19:46Z</time>
      </trkpt>
      <trkpt lat="43.50635" lon="6.31407">
        <ele>269.4</ele>
        <time>2015-02-25T12:19:58Z</time>
      </trkpt>
      <trkpt lat="43.5064" lon="6.31385">
        <ele>269.7</ele>
        <time>2015-02-25T12:20:12Z</time>
      </trkpt>
      <trkpt lat="43.5064" lon="6.31361">
        <ele>269.6</ele>
        <time>2015-02-25T12:20:25Z</time>
      </trkpt>
      <trkpt lat="43.50644" lon="6.31337">
        <ele>269.5</ele>
        <time>2015-02-25T12:20:40Z</time>
      </trkpt>
      <trkpt lat="43.50651" lon="6.31315">
        <ele>269.6</ele>
        <time>2015-02-25T12:20:54Z</time>
      </trkpt>
      <trkpt lat="43.50661" lon="6.31295">
        <ele>269.8</ele>
        <time>2015-02-25T12:21:09Z</time>
      </trkpt>
      <trkpt lat="43.50669" lon="6.31274">
        <ele>269.6</ele>
        <time>2015-02-25T12:21:23Z</time>
      </trkpt>
      <trkpt lat="43.50679" lon="6.31255">
        <ele>269.9</ele>
        <time>2015-02-25T12:21:37Z</time>
      </trkpt>
      <trkpt lat="43.50691" lon="6.31237">
        <ele>269.7</ele>
        <time>2015-02-25T12:21:52Z</time>
      </trkpt>
      <trkpt lat="43.50704" lon="6.3122">
        <ele>269.9</ele>
        <time>2015-02-25T12:22:06Z</time>
      </trkpt>
      <trkpt lat="43.50718" lon="6.31205">
        <ele>270.2</ele>
        <time>2015-02-25T12:22:20Z</time>
      </trkpt>
      <trkpt lat="43.5073" lon="6.31187">
        <ele>270</ele>
        <time>2015-02-25T12:22:34Z</time>
      </trkpt>
      <trkpt lat="43.50742" lon="6.31168">
        <ele>270</ele>
        <time>2015-02-25T12:22:48Z</time>
      </trkpt>
      <trkpt lat="43.50753" lon="6.3115">
        <ele>270.2</ele>
        <time>2015-02-25T12:23:02Z</time>
      </trkpt>
      <trkpt lat="43.50762" lon="6.31129">
        <ele>270.3</ele>
        <time>2015-02-25T12:23:16Z</time>
      </trkpt>
      <trkpt lat="43.50772" lon="6.31109">
        <ele>270.6</ele>
        <time>2015-02-25T12:23:31Z</time>
      </trkpt>
      <trkpt lat="43.50785" lon="6.31093">
        <ele>270.8</ele>
        <time>2015-02-25T12:23:46Z</time>
      </trkpt>
      <trkpt lat="43.50795" lon="6.31074">
        <ele>270.9</ele>
        <time>2015-02-25T12:24:00Z</time>
      </trkpt>
      <trkpt lat="43.50804" lon="6.31054">
        <ele>270.8</ele>
        <time>2015-02-25T12:24:13Z</time>
      </trkpt>
      <trkpt lat="43.50814" lon="6.31035">
        <ele>271.7</ele>
        <time>2015-02-25T12:24:27Z</time>
      </trkpt>
      <trkpt lat="43.50824" lon="6.31015">
        <ele>271</ele>
        <time>2015-02-25T12:24:41Z</time>
      </trkpt>
      <trkpt lat="43.50834" lon="6.30995">
        <ele>271.4</ele>
        <time>2015-02-25T12:24:55Z</time>
      </trkpt>
      <trkpt lat="43.50845" lon="6.30976">
        <ele>271.8</ele>
        <time>2015-02-25T12:25:09Z</time>
      </trkpt>
      <trkpt lat="43.50853" lon="6.30954">
        <ele>272.4</ele>
        <time>2015-02-25T12:25:23Z</time>
      </trkpt>
      <trkpt lat="43.50861" lon="6.30932">
        <ele>272.1</ele>
        <time>2015-02-25T12:25:37Z</time>
      </trkpt>
      <trkpt lat="43.50867" lon="6.3091">
        <ele>272</ele>
        <time>2015-02-25T12:25:50Z</time>
      </trkpt>
      <trkpt lat="43.50874" lon="6.30888">
        <ele>272.3</ele>
        <time>2015-02-25T12:26:05Z</time>
      </trkpt>
      <trkpt lat="43.50882" lon="6.30866">
        <ele>272</ele>
        <time>2015-02-25T12:26:22Z</time>
      </trkpt>
      <trkpt lat="43.50891" lon="6.30846">
        <ele>272.2</ele>
        <time>2015-02-25T12:26:36Z</time>
      </trkpt>
      <trkpt lat="43.50899" lon="6.30826">
        <ele>272.3</ele>
        <time>2015-02-25T12:26:50Z</time>
      </trkpt>
      <trkpt lat="43.50906" lon="6.30804">
        <ele>272</ele>
        <time>2015-02-25T12:27:04Z</time>
      </trkpt>
      <trkpt lat="43.50914" lon="6.30782">
        <ele>271.8</ele>
        <time>2015-02-25T12:27:20Z</time>
      </trkpt>
      <trkpt lat="43.50916" lon="6.30758">
        <ele>270.8</ele>
        <time>2015-02-25T12:27:41Z</time>
      </trkpt>
      <trkpt lat="43.50924" lon="6.30735">
        <ele>270.1</ele>
        <time>2015-02-25T12:27:56Z</time>
      </trkpt>
      <trkpt lat="43.50931" lon="6.30713">
        <ele>269.7</ele>
        <time>2015-02-25T12:28:14Z</time>
      </trkpt>
      <trkpt lat="43.50939" lon="6.30692">
        <ele>269.9</ele>
        <time>2015-02-25T12:28:27Z</time>
      </trkpt>
      <trkpt lat="43.50947" lon="6.30671">
        <ele>269.8</ele>
        <time>2015-02-25T12:28:40Z</time>
      </trkpt>
      <trkpt lat="43.50958" lon="6.30652">
        <ele>269.2</ele>
        <time>2015-02-25T12:28:54Z</time>
      </trkpt>
      <trkpt lat="43.50968" lon="6.30632">
        <ele>269.6</ele>
        <time>2015-02-25T12:29:07Z</time>
      </trkpt>
      <trkpt lat="43.50977" lon="6.30611">
        <ele>269.8</ele>
        <time>2015-02-25T12:29:21Z</time>
      </trkpt>
      <trkpt lat="43.50987" lon="6.30591">
        <ele>269.5</ele>
        <time>2015-02-25T12:29:35Z</time>
      </trkpt>
      <trkpt lat="43.50996" lon="6.30572">
        <ele>269.6</ele>
        <time>2015-02-25T12:29:49Z</time>
      </trkpt>
      <trkpt lat="43.51008" lon="6.30553">
        <ele>269.7</ele>
        <time>2015-02-25T12:30:03Z</time>
      </trkpt>
      <trkpt lat="43.51021" lon="6.30539">
        <ele>269.3</ele>
        <time>2015-02-25T12:30:15Z</time>
      </trkpt>
      <trkpt lat="43.51034" lon="6.30522">
        <ele>269.2</ele>
        <time>2015-02-25T12:30:30Z</time>
      </trkpt>
      <trkpt lat="43.51047" lon="6.30505">
        <ele>269.5</ele>
        <time>2015-02-25T12:30:44Z</time>
      </trkpt>
      <trkpt lat="43.51059" lon="6.30487">
        <ele>268.7</ele>
        <time>2015-02-25T12:30:59Z</time>
      </trkpt>
      <trkpt lat="43.51072" lon="6.30471">
        <ele>268.4</ele>
        <time>2015-02-25T12:31:13Z</time>
      </trkpt>
      <trkpt lat="43.51086" lon="6.30456">
        <ele>268.5</ele>
        <time>2015-02-25T12:31:25Z</time>
      </trkpt>
      <trkpt lat="43.51098" lon="6.3044">
        <ele>267.9</ele>
        <time>2015-02-25T12:31:39Z</time>
      </trkpt>
      <trkpt lat="43.51111" lon="6.30423">
        <ele>267.5</ele>
        <time>2015-02-25T12:31:52Z</time>
      </trkpt>
      <trkpt lat="43.51123" lon="6.30405">
        <ele>267.5</ele>
        <time>2015-02-25T12:32:06Z</time>
      </trkpt>
      <trkpt lat="43.51136" lon="6.30389">
        <ele>267.9</ele>
        <time>2015-02-25T12:32:21Z</time>
      </trkpt>
      <trkpt lat="43.51148" lon="6.30371">
        <ele>267.4</ele>
        <time>2015-02-25T12:32:33Z</time>
      </trkpt>
      <trkpt lat="43.5116" lon="6.30352">
        <ele>267</ele>
        <time>2015-02-25T12:32:47Z</time>
      </trkpt>
      <trkpt lat="43.51173" lon="6.30337">
        <ele>267.3</ele>
        <time>2015-02-25T12:32:59Z</time>
      </trkpt>
      <trkpt lat="43.51187" lon="6.30323">
        <ele>267.5</ele>
        <time>2015-02-25T12:33:13Z</time>
      </trkpt>
      <trkpt lat="43.512" lon="6.30308">
        <ele>267.5</ele>
        <time>2015-02-25T12:33:27Z</time>
      </trkpt>
      <trkpt lat="43.51215" lon="6.30295">
        <ele>267.1</ele>
        <time>2015-02-25T12:33:40Z</time>
      </trkpt>
      <trkpt lat="43.51228" lon="6.30282">
        <ele>266.9</ele>
        <time>2015-02-25T12:33:54Z</time>
      </trkpt>
      <trkpt lat="43.51242" lon="6.30268">
        <ele>266.2</ele>
        <time>2015-02-25T12:34:06Z</time>
      </trkpt>
      <trkpt lat="43.51257" lon="6.30255">
        <ele>266.2</ele>
        <time>2015-02-25T12:34:18Z</time>
      </trkpt>
      <trkpt lat="43.5127" lon="6.3024">
        <ele>266.4</ele>
        <time>2015-02-25T12:34:31Z</time>
      </trkpt>
      <trkpt lat="43.51282" lon="6.30222">
        <ele>266.2</ele>
        <time>2015-02-25T12:34:45Z</time>
      </trkpt>
      <trkpt lat="43.51294" lon="6.30206">
        <ele>266.5</ele>
        <time>2015-02-25T12:34:57Z</time>
      </trkpt>
      <trkpt lat="43.51303" lon="6.30188">
        <ele>266.9</ele>
        <time>2015-02-25T12:35:09Z</time>
      </trkpt>
      <trkpt lat="43.51314" lon="6.30169">
        <ele>266.2</ele>
        <time>2015-02-25T12:35:20Z</time>
      </trkpt>
      <trkpt lat="43.51323" lon="6.30149">
        <ele>266.3</ele>
        <time>2015-02-25T12:35:33Z</time>
      </trkpt>
      <trkpt lat="43.51331" lon="6.30128">
        <ele>265.3</ele>
        <time>2015-02-25T12:36:55Z</time>
      </trkpt>
      <trkpt lat="43.51341" lon="6.30109">
        <ele>266.2</ele>
        <time>2015-02-25T12:37:06Z</time>
      </trkpt>
      <trkpt lat="43.51351" lon="6.3009">
        <ele>265.9</ele>
        <time>2015-02-25T12:37:18Z</time>
      </trkpt>
      <trkpt lat="43.51362" lon="6.30071">
        <ele>265.3</ele>
        <time>2015-02-25T12:37:30Z</time>
      </trkpt>
      <trkpt lat="43.51372" lon="6.30051">
        <ele>265.2</ele>
        <time>2015-02-25T12:37:42Z</time>
      </trkpt>
      <trkpt lat="43.51383" lon="6.30031">
        <ele>265.2</ele>
        <time>2015-02-25T12:37:54Z</time>
      </trkpt>
      <trkpt lat="43.51392" lon="6.3001">
        <ele>265.4</ele>
        <time>2015-02-25T12:38:07Z</time>
      </trkpt>
      <trkpt lat="43.51402" lon="6.29991">
        <ele>265</ele>
        <time>2015-02-25T12:38:19Z</time>
      </trkpt>
      <trkpt lat="43.51412" lon="6.29972">
        <ele>265</ele>
        <time>2015-02-25T12:38:31Z</time>
      </trkpt>
      <trkpt lat="43.51421" lon="6.29951">
        <ele>264.2</ele>
        <time>2015-02-25T12:38:44Z</time>
      </trkpt>
      <trkpt lat="43.51434" lon="6.29933">
        <ele>264.6</ele>
        <time>2015-02-25T12:38:56Z</time>
      </trkpt>
      <trkpt lat="43.51447" lon="6.29918">
        <ele>264.6</ele>
        <time>2015-02-25T12:39:09Z</time>
      </trkpt>
      <trkpt lat="43.51462" lon="6.29907">
        <ele>264.3</ele>
        <time>2015-02-25T12:39:21Z</time>
      </trkpt>
      <trkpt lat="43.51477" lon="6.29899">
        <ele>264.4</ele>
        <time>2015-02-25T12:39:33Z</time>
      </trkpt>
      <trkpt lat="43.51493" lon="6.29891">
        <ele>264</ele>
        <time>2015-02-25T12:39:45Z</time>
      </trkpt>
      <trkpt lat="43.5151" lon="6.29883">
        <ele>264.7</ele>
        <time>2015-02-25T12:39:59Z</time>
      </trkpt>
      <trkpt lat="43.51527" lon="6.29881">
        <ele>263.8</ele>
        <time>2015-02-25T12:40:10Z</time>
      </trkpt>
      <trkpt lat="43.51542" lon="6.2987">
        <ele>264.3</ele>
        <time>2015-02-25T12:40:23Z</time>
      </trkpt>
      <trkpt lat="43.51559" lon="6.29862">
        <ele>263.8</ele>
        <time>2015-02-25T12:40:35Z</time>
      </trkpt>
      <trkpt lat="43.51573" lon="6.29849">
        <ele>264.3</ele>
        <time>2015-02-25T12:40:47Z</time>
      </trkpt>
      <trkpt lat="43.51589" lon="6.29837">
        <ele>263.4</ele>
        <time>2015-02-25T12:41:01Z</time>
      </trkpt>
      <trkpt lat="43.51605" lon="6.29827">
        <ele>263.1</ele>
        <time>2015-02-25T12:41:16Z</time>
      </trkpt>
      <trkpt lat="43.51619" lon="6.29841">
        <ele>263.9</ele>
        <time>2015-02-25T12:41:28Z</time>
      </trkpt>
      <trkpt lat="43.51632" lon="6.29858">
        <ele>265</ele>
        <time>2015-02-25T12:41:45Z</time>
      </trkpt>
      <trkpt lat="43.51645" lon="6.29873">
        <ele>266.5</ele>
        <time>2015-02-25T12:42:00Z</time>
      </trkpt>
      <trkpt lat="43.51658" lon="6.29889">
        <ele>266.8</ele>
        <time>2015-02-25T12:42:13Z</time>
      </trkpt>
      <trkpt lat="43.5167" lon="6.29905">
        <ele>267.2</ele>
        <time>2015-02-25T12:42:34Z</time>
      </trkpt>
      <trkpt lat="43.51687" lon="6.29912">
        <ele>266.7</ele>
        <time>2015-02-25T12:42:48Z</time>
      </trkpt>
      <trkpt lat="43.51704" lon="6.29921">
        <ele>267.1</ele>
        <time>2015-02-25T12:43:03Z</time>
      </trkpt>
      <trkpt lat="43.51721" lon="6.29925">
        <ele>268.3</ele>
        <time>2015-02-25T12:43:19Z</time>
      </trkpt>
      <trkpt lat="43.51738" lon="6.29933">
        <ele>269.6</ele>
        <time>2015-02-25T12:43:35Z</time>
      </trkpt>
      <trkpt lat="43.51753" lon="6.29943">
        <ele>270.1</ele>
        <time>2015-02-25T12:43:49Z</time>
      </trkpt>
      <trkpt lat="43.51769" lon="6.29951">
        <ele>270.2</ele>
        <time>2015-02-25T12:44:12Z</time>
      </trkpt>
      <trkpt lat="43.51784" lon="6.29962">
        <ele>271.3</ele>
        <time>2015-02-25T12:44:28Z</time>
      </trkpt>
      <trkpt lat="43.51801" lon="6.29967">
        <ele>272.8</ele>
        <time>2015-02-25T12:44:46Z</time>
      </trkpt>
      <trkpt lat="43.51817" lon="6.29955">
        <ele>274.7</ele>
        <time>2015-02-25T12:45:02Z</time>
      </trkpt>
      <trkpt lat="43.51834" lon="6.29957">
        <ele>278.2</ele>
        <time>2015-02-25T12:45:27Z</time>
      </trkpt>
      <trkpt lat="43.51851" lon="6.2996">
        <ele>278.6</ele>
        <time>2015-02-25T12:45:44Z</time>
      </trkpt>
      <trkpt lat="43.51868" lon="6.29964">
        <ele>278.3</ele>
        <time>2015-02-25T12:45:59Z</time>
      </trkpt>
      <trkpt lat="43.51886" lon="6.29967">
        <ele>278.3</ele>
        <time>2015-02-25T12:46:14Z</time>
      </trkpt>
      <trkpt lat="43.51902" lon="6.29973">
        <ele>277.5</ele>
        <time>2015-02-25T12:46:29Z</time>
      </trkpt>
      <trkpt lat="43.51919" lon="6.29978">
        <ele>277.2</ele>
        <time>2015-02-25T12:46:45Z</time>
      </trkpt>
      <trkpt lat="43.51936" lon="6.29984">
        <ele>277.7</ele>
        <time>2015-02-25T12:47:01Z</time>
      </trkpt>
      <trkpt lat="43.51953" lon="6.29992">
        <ele>277</ele>
        <time>2015-02-25T12:47:16Z</time>
      </trkpt>
      <trkpt lat="43.51969" lon="6.30004">
        <ele>276</ele>
        <time>2015-02-25T12:47:32Z</time>
      </trkpt>
      <trkpt lat="43.51984" lon="6.30016">
        <ele>275.7</ele>
        <time>2015-02-25T12:47:47Z</time>
      </trkpt>
      <trkpt lat="43.52002" lon="6.30018">
        <ele>276.8</ele>
        <time>2015-02-25T12:48:09Z</time>
      </trkpt>
      <trkpt lat="43.52009" lon="6.3004">
        <ele>275.7</ele>
        <time>2015-02-25T12:49:49Z</time>
      </trkpt>
      <trkpt lat="43.52024" lon="6.3005">
        <ele>276.1</ele>
        <time>2015-02-25T12:50:05Z</time>
      </trkpt>
      <trkpt lat="43.52039" lon="6.30063">
        <ele>277.3</ele>
        <time>2015-02-25T12:50:23Z</time>
      </trkpt>
      <trkpt lat="43.52037" lon="6.30087">
        <ele>277.1</ele>
        <time>2015-02-25T12:52:26Z</time>
      </trkpt>
      <trkpt lat="43.5204" lon="6.30111">
        <ele>280.6</ele>
        <time>2015-02-25T12:52:56Z</time>
      </trkpt>
      <trkpt lat="43.52035" lon="6.30135">
        <ele>281.4</ele>
        <time>2015-02-25T12:53:17Z</time>
      </trkpt>
      <trkpt lat="43.5203" lon="6.30159">
        <ele>282.2</ele>
        <time>2015-02-25T12:53:35Z</time>
      </trkpt>
      <trkpt lat="43.52024" lon="6.30182">
        <ele>283.5</ele>
        <time>2015-02-25T12:54:27Z</time>
      </trkpt>
      <trkpt lat="43.52024" lon="6.30206">
        <ele>284.1</ele>
        <time>2015-02-25T12:54:51Z</time>
      </trkpt>
      <trkpt lat="43.52028" lon="6.3023">
        <ele>285.8</ele>
        <time>2015-02-25T12:55:08Z</time>
      </trkpt>
      <trkpt lat="43.52031" lon="6.30253">
        <ele>286.7</ele>
        <time>2015-02-25T12:55:26Z</time>
      </trkpt>
      <trkpt lat="43.52047" lon="6.30262">
        <ele>288.4</ele>
        <time>2015-02-25T12:57:00Z</time>
      </trkpt>
      <trkpt lat="43.52062" lon="6.30273">
        <ele>290.1</ele>
        <time>2015-02-25T12:57:14Z</time>
      </trkpt>
      <trkpt lat="43.52077" lon="6.30286">
        <ele>290.2</ele>
        <time>2015-02-25T12:57:33Z</time>
      </trkpt>
      <trkpt lat="43.52094" lon="6.30292">
        <ele>291.6</ele>
        <time>2015-02-25T12:57:51Z</time>
      </trkpt>
      <trkpt lat="43.52109" lon="6.30305">
        <ele>291.6</ele>
        <time>2015-02-25T12:58:07Z</time>
      </trkpt>
      <trkpt lat="43.5212" lon="6.30323">
        <ele>292.2</ele>
        <time>2015-02-25T12:58:35Z</time>
      </trkpt>
      <trkpt lat="43.52118" lon="6.30348">
        <ele>293.6</ele>
        <time>2015-02-25T12:59:00Z</time>
      </trkpt>
      <trkpt lat="43.52112" lon="6.3037">
        <ele>294.5</ele>
        <time>2015-02-25T12:59:21Z</time>
      </trkpt>
      <trkpt lat="43.52108" lon="6.30393">
        <ele>296.3</ele>
        <time>2015-02-25T12:59:41Z</time>
      </trkpt>
      <trkpt lat="43.52114" lon="6.30416">
        <ele>298.5</ele>
        <time>2015-02-25T13:00:01Z</time>
      </trkpt>
      <trkpt lat="43.52115" lon="6.3044">
        <ele>300.2</ele>
        <time>2015-02-25T13:00:23Z</time>
      </trkpt>
      <trkpt lat="43.52116" lon="6.30463">
        <ele>301.8</ele>
        <time>2015-02-25T13:00:58Z</time>
      </trkpt>
      <trkpt lat="43.52123" lon="6.30484">
        <ele>302.9</ele>
        <time>2015-02-25T13:01:14Z</time>
      </trkpt>
      <trkpt lat="43.52133" lon="6.30504">
        <ele>304.9</ele>
        <time>2015-02-25T13:01:31Z</time>
      </trkpt>
      <trkpt lat="43.52147" lon="6.30518">
        <ele>306</ele>
        <time>2015-02-25T13:02:05Z</time>
      </trkpt>
      <trkpt lat="43.5216" lon="6.30535">
        <ele>308.7</ele>
        <time>2015-02-25T13:02:33Z</time>
      </trkpt>
      <trkpt lat="43.5217" lon="6.30556">
        <ele>308.5</ele>
        <time>2015-02-25T13:02:53Z</time>
      </trkpt>
      <trkpt lat="43.52183" lon="6.30572">
        <ele>309.6</ele>
        <time>2015-02-25T13:03:14Z</time>
      </trkpt>
      <trkpt lat="43.52196" lon="6.30589">
        <ele>311.9</ele>
        <time>2015-02-25T13:03:34Z</time>
      </trkpt>
      <trkpt lat="43.52212" lon="6.30599">
        <ele>313.8</ele>
        <time>2015-02-25T13:03:55Z</time>
      </trkpt>
      <trkpt lat="43.52224" lon="6.30616">
        <ele>314.8</ele>
        <time>2015-02-25T13:04:15Z</time>
      </trkpt>
      <trkpt lat="43.5224" lon="6.30626">
        <ele>316.6</ele>
        <time>2015-02-25T13:04:35Z</time>
      </trkpt>
      <trkpt lat="43.52255" lon="6.3064">
        <ele>318.1</ele>
        <time>2015-02-25T13:04:56Z</time>
      </trkpt>
      <trkpt lat="43.52267" lon="6.30657">
        <ele>318.9</ele>
        <time>2015-02-25T13:05:16Z</time>
      </trkpt>
      <trkpt lat="43.52276" lon="6.30678">
        <ele>320.9</ele>
        <time>2015-02-25T13:05:38Z</time>
      </trkpt>
      <trkpt lat="43.52284" lon="6.307">
        <ele>322.5</ele>
        <time>2015-02-25T13:06:00Z</time>
      </trkpt>
      <trkpt lat="43.52287" lon="6.30723">
        <ele>324.5</ele>
        <time>2015-02-25T13:06:26Z</time>
      </trkpt>
      <trkpt lat="43.52287" lon="6.30747">
        <ele>325.9</ele>
        <time>2015-02-25T13:06:43Z</time>
      </trkpt>
      <trkpt lat="43.5229" lon="6.30771">
        <ele>328.2</ele>
        <time>2015-02-25T13:07:03Z</time>
      </trkpt>
      <trkpt lat="43.52294" lon="6.30795">
        <ele>330.3</ele>
        <time>2015-02-25T13:07:23Z</time>
      </trkpt>
      <trkpt lat="43.52286" lon="6.30816">
        <ele>331.7</ele>
        <time>2015-02-25T13:08:18Z</time>
      </trkpt>
      <trkpt lat="43.52274" lon="6.30833">
        <ele>332.1</ele>
        <time>2015-02-25T13:08:38Z</time>
      </trkpt>
      <trkpt lat="43.52262" lon="6.30852">
        <ele>333.2</ele>
        <time>2015-02-25T13:09:00Z</time>
      </trkpt>
      <trkpt lat="43.52258" lon="6.30876">
        <ele>334.6</ele>
        <time>2015-02-25T13:09:19Z</time>
      </trkpt>
      <trkpt lat="43.52249" lon="6.30895">
        <ele>335.4</ele>
        <time>2015-02-25T13:09:42Z</time>
      </trkpt>
      <trkpt lat="43.52239" lon="6.30915">
        <ele>336.5</ele>
        <time>2015-02-25T13:10:01Z</time>
      </trkpt>
      <trkpt lat="43.52229" lon="6.30935">
        <ele>336.9</ele>
        <time>2015-02-25T13:10:21Z</time>
      </trkpt>
      <trkpt lat="43.52218" lon="6.30954">
        <ele>337</ele>
        <time>2015-02-25T13:10:42Z</time>
      </trkpt>
      <trkpt lat="43.52211" lon="6.30976">
        <ele>336.7</ele>
        <time>2015-02-25T13:11:14Z</time>
      </trkpt>
      <trkpt lat="43.522" lon="6.30995">
        <ele>336.4</ele>
        <time>2015-02-25T13:11:30Z</time>
      </trkpt>
      <trkpt lat="43.52191" lon="6.31015">
        <ele>335.6</ele>
        <time>2015-02-25T13:11:49Z</time>
      </trkpt>
      <trkpt lat="43.52181" lon="6.31035">
        <ele>335.1</ele>
        <time>2015-02-25T13:12:05Z</time>
      </trkpt>
      <trkpt lat="43.5217" lon="6.31054">
        <ele>334.6</ele>
        <time>2015-02-25T13:12:23Z</time>
      </trkpt>
      <trkpt lat="43.52159" lon="6.31072">
        <ele>334.5</ele>
        <time>2015-02-25T13:12:40Z</time>
      </trkpt>
      <trkpt lat="43.52147" lon="6.31089">
        <ele>335.7</ele>
        <time>2015-02-25T13:12:55Z</time>
      </trkpt>
      <trkpt lat="43.52134" lon="6.31104">
        <ele>336.1</ele>
        <time>2015-02-25T13:13:13Z</time>
      </trkpt>
      <trkpt lat="43.52119" lon="6.31116">
        <ele>335.2</ele>
        <time>2015-02-25T13:13:30Z</time>
      </trkpt>
      <trkpt lat="43.52103" lon="6.31126">
        <ele>334.1</ele>
        <time>2015-02-25T13:13:47Z</time>
      </trkpt>
      <trkpt lat="43.52087" lon="6.31136">
        <ele>333.3</ele>
        <time>2015-02-25T13:14:02Z</time>
      </trkpt>
      <trkpt lat="43.52072" lon="6.31146">
        <ele>332.4</ele>
        <time>2015-02-25T13:14:18Z</time>
      </trkpt>
      <trkpt lat="43.52064" lon="6.31168">
        <ele>331.7</ele>
        <time>2015-02-25T13:14:32Z</time>
      </trkpt>
      <trkpt lat="43.52058" lon="6.31191">
        <ele>331</ele>
        <time>2015-02-25T13:14:51Z</time>
      </trkpt>
      <trkpt lat="43.52044" lon="6.31205">
        <ele>330.7</ele>
        <time>2015-02-25T13:15:11Z</time>
      </trkpt>
      <trkpt lat="43.52035" lon="6.31227">
        <ele>328.4</ele>
        <time>2015-02-25T13:15:38Z</time>
      </trkpt>
      <trkpt lat="43.52023" lon="6.31244">
        <ele>325.7</ele>
        <time>2015-02-25T13:15:59Z</time>
      </trkpt>
      <trkpt lat="43.52005" lon="6.31244">
        <ele>324</ele>
        <time>2015-02-25T13:16:18Z</time>
      </trkpt>
      <trkpt lat="43.51989" lon="6.31233">
        <ele>323.3</ele>
        <time>2015-02-25T13:16:37Z</time>
      </trkpt>
      <trkpt lat="43.51974" lon="6.31221">
        <ele>322.9</ele>
        <time>2015-02-25T13:16:58Z</time>
      </trkpt>
      <trkpt lat="43.51959" lon="6.31209">
        <ele>321.8</ele>
        <time>2015-02-25T13:17:19Z</time>
      </trkpt>
      <trkpt lat="43.51944" lon="6.31222">
        <ele>318.5</ele>
        <time>2015-02-25T13:19:35Z</time>
      </trkpt>
      <trkpt lat="43.51927" lon="6.31226">
        <ele>317.1</ele>
        <time>2015-02-25T13:19:51Z</time>
      </trkpt>
      <trkpt lat="43.51909" lon="6.3123">
        <ele>315.9</ele>
        <time>2015-02-25T13:20:14Z</time>
      </trkpt>
      <trkpt lat="43.51892" lon="6.31232">
        <ele>314.8</ele>
        <time>2015-02-25T13:20:32Z</time>
      </trkpt>
      <trkpt lat="43.51874" lon="6.31234">
        <ele>313.9</ele>
        <time>2015-02-25T13:20:47Z</time>
      </trkpt>
      <trkpt lat="43.51857" lon="6.31233">
        <ele>312.7</ele>
        <time>2015-02-25T13:21:02Z</time>
      </trkpt>
      <trkpt lat="43.51841" lon="6.31224">
        <ele>312.5</ele>
        <time>2015-02-25T13:21:17Z</time>
      </trkpt>
      <trkpt lat="43.51824" lon="6.31219">
        <ele>311.5</ele>
        <time>2015-02-25T13:21:34Z</time>
      </trkpt>
      <trkpt lat="43.51807" lon="6.31215">
        <ele>310.5</ele>
        <time>2015-02-25T13:21:52Z</time>
      </trkpt>
      <trkpt lat="43.51794" lon="6.312">
        <ele>310.5</ele>
        <time>2015-02-25T13:22:14Z</time>
      </trkpt>
      <trkpt lat="43.51782" lon="6.31184">
        <ele>310.4</ele>
        <time>2015-02-25T13:22:31Z</time>
      </trkpt>
      <trkpt lat="43.51768" lon="6.31169">
        <ele>310.1</ele>
        <time>2015-02-25T13:22:47Z</time>
      </trkpt>
      <trkpt lat="43.51754" lon="6.31155">
        <ele>310.1</ele>
        <time>2015-02-25T13:23:03Z</time>
      </trkpt>
      <trkpt lat="43.51738" lon="6.31141">
        <ele>308.7</ele>
        <time>2015-02-25T13:23:19Z</time>
      </trkpt>
      <trkpt lat="43.51724" lon="6.31129">
        <ele>307.9</ele>
        <time>2015-02-25T13:23:34Z</time>
      </trkpt>
      <trkpt lat="43.51708" lon="6.31122">
        <ele>307.2</ele>
        <time>2015-02-25T13:23:49Z</time>
      </trkpt>
      <trkpt lat="43.51691" lon="6.31117">
        <ele>306.4</ele>
        <time>2015-02-25T13:24:04Z</time>
      </trkpt>
      <trkpt lat="43.51674" lon="6.31109">
        <ele>305.5</ele>
        <time>2015-02-25T13:24:19Z</time>
      </trkpt>
      <trkpt lat="43.51657" lon="6.31112">
        <ele>303.9</ele>
        <time>2015-02-25T13:24:35Z</time>
      </trkpt>
      <trkpt lat="43.51641" lon="6.31122">
        <ele>302.9</ele>
        <time>2015-02-25T13:24:50Z</time>
      </trkpt>
      <trkpt lat="43.51626" lon="6.31133">
        <ele>302.6</ele>
        <time>2015-02-25T13:25:06Z</time>
      </trkpt>
      <trkpt lat="43.51625" lon="6.31156">
        <ele>302.8</ele>
        <time>2015-02-25T13:25:33Z</time>
      </trkpt>
      <trkpt lat="43.5163" lon="6.31179">
        <ele>304.2</ele>
        <time>2015-02-25T13:25:49Z</time>
      </trkpt>
      <trkpt lat="43.51631" lon="6.31204">
        <ele>305.2</ele>
        <time>2015-02-25T13:26:06Z</time>
      </trkpt>
      <trkpt lat="43.51631" lon="6.31228">
        <ele>305</ele>
        <time>2015-02-25T13:26:22Z</time>
      </trkpt>
      <trkpt lat="43.51633" lon="6.31251">
        <ele>304.5</ele>
        <time>2015-02-25T13:26:38Z</time>
      </trkpt>
      <trkpt lat="43.51639" lon="6.31274">
        <ele>304.9</ele>
        <time>2015-02-25T13:26:56Z</time>
      </trkpt>
      <trkpt lat="43.51625" lon="6.31289">
        <ele>304.6</ele>
        <time>2015-02-25T13:27:13Z</time>
      </trkpt>
      <trkpt lat="43.51612" lon="6.31304">
        <ele>305.3</ele>
        <time>2015-02-25T13:27:28Z</time>
      </trkpt>
      <trkpt lat="43.516" lon="6.31322">
        <ele>305.8</ele>
        <time>2015-02-25T13:27:44Z</time>
      </trkpt>
      <trkpt lat="43.51593" lon="6.31343">
        <ele>306.1</ele>
        <time>2015-02-25T13:28:00Z</time>
      </trkpt>
      <trkpt lat="43.51589" lon="6.31366">
        <ele>304</ele>
        <time>2015-02-25T13:28:16Z</time>
      </trkpt>
      <trkpt lat="43.51588" lon="6.3139">
        <ele>303.2</ele>
        <time>2015-02-25T13:28:30Z</time>
      </trkpt>
      <trkpt lat="43.51589" lon="6.31414">
        <ele>302.9</ele>
        <time>2015-02-25T13:28:47Z</time>
      </trkpt>
      <trkpt lat="43.51595" lon="6.31436">
        <ele>303.4</ele>
        <time>2015-02-25T13:29:04Z</time>
      </trkpt>
      <trkpt lat="43.51605" lon="6.31457">
        <ele>305.9</ele>
        <time>2015-02-25T13:29:25Z</time>
      </trkpt>
      <trkpt lat="43.51617" lon="6.31474">
        <ele>308.1</ele>
        <time>2015-02-25T13:29:43Z</time>
      </trkpt>
      <trkpt lat="43.51628" lon="6.31493">
        <ele>309.5</ele>
        <time>2015-02-25T13:29:59Z</time>
      </trkpt>
      <trkpt lat="43.51639" lon="6.31512">
        <ele>309.2</ele>
        <time>2015-02-25T13:30:15Z</time>
      </trkpt>
      <trkpt lat="43.51652" lon="6.31529">
        <ele>309.9</ele>
        <time>2015-02-25T13:30:33Z</time>
      </trkpt>
      <trkpt lat="43.51662" lon="6.31549">
        <ele>311.2</ele>
        <time>2015-02-25T13:30:50Z</time>
      </trkpt>
      <trkpt lat="43.51673" lon="6.31568">
        <ele>311.6</ele>
        <time>2015-02-25T13:31:09Z</time>
      </trkpt>
      <trkpt lat="43.51684" lon="6.31586">
        <ele>311.8</ele>
        <time>2015-02-25T13:31:25Z</time>
      </trkpt>
      <trkpt lat="43.51696" lon="6.31602">
        <ele>311.5</ele>
        <time>2015-02-25T13:31:42Z</time>
      </trkpt>
      <trkpt lat="43.5171" lon="6.31617">
        <ele>312.9</ele>
        <time>2015-02-25T13:31:58Z</time>
      </trkpt>
      <trkpt lat="43.51722" lon="6.31635">
        <ele>314.5</ele>
        <time>2015-02-25T13:32:21Z</time>
      </trkpt>
      <trkpt lat="43.51723" lon="6.31658">
        <ele>317.2</ele>
        <time>2015-02-25T13:32:43Z</time>
      </trkpt>
      <trkpt lat="43.51723" lon="6.31682">
        <ele>319</ele>
        <time>2015-02-25T13:33:03Z</time>
      </trkpt>
      <trkpt lat="43.51721" lon="6.31705">
        <ele>319.6</ele>
        <time>2015-02-25T13:33:23Z</time>
      </trkpt>
      <trkpt lat="43.51719" lon="6.3173">
        <ele>320.7</ele>
        <time>2015-02-25T13:33:43Z</time>
      </trkpt>
      <trkpt lat="43.51718" lon="6.31754">
        <ele>320</ele>
        <time>2015-02-25T13:34:10Z</time>
      </trkpt>
      <trkpt lat="43.5172" lon="6.31778">
        <ele>320.5</ele>
        <time>2015-02-25T13:34:26Z</time>
      </trkpt>
      <trkpt lat="43.51719" lon="6.31802">
        <ele>320.5</ele>
        <time>2015-02-25T13:34:44Z</time>
      </trkpt>
      <trkpt lat="43.51716" lon="6.31825">
        <ele>321.4</ele>
        <time>2015-02-25T13:35:02Z</time>
      </trkpt>
      <trkpt lat="43.51712" lon="6.31848">
        <ele>323.6</ele>
        <time>2015-02-25T13:35:19Z</time>
      </trkpt>
      <trkpt lat="43.51709" lon="6.31872">
        <ele>324.4</ele>
        <time>2015-02-25T13:35:38Z</time>
      </trkpt>
      <trkpt lat="43.51709" lon="6.31896">
        <ele>326.7</ele>
        <time>2015-02-25T13:35:56Z</time>
      </trkpt>
      <trkpt lat="43.51701" lon="6.31918">
        <ele>328.7</ele>
        <time>2015-02-25T13:36:14Z</time>
      </trkpt>
      <trkpt lat="43.51697" lon="6.31943">
        <ele>330.6</ele>
        <time>2015-02-25T13:36:35Z</time>
      </trkpt>
      <trkpt lat="43.5169" lon="6.31965">
        <ele>332.9</ele>
        <time>2015-02-25T13:36:53Z</time>
      </trkpt>
      <trkpt lat="43.51686" lon="6.31989">
        <ele>334.6</ele>
        <time>2015-02-25T13:37:14Z</time>
      </trkpt>
      <trkpt lat="43.5169" lon="6.32012">
        <ele>336.4</ele>
        <time>2015-02-25T13:37:32Z</time>
      </trkpt>
      <trkpt lat="43.51688" lon="6.32036">
        <ele>337.5</ele>
        <time>2015-02-25T13:37:51Z</time>
      </trkpt>
      <trkpt lat="43.51686" lon="6.32059">
        <ele>338.4</ele>
        <time>2015-02-25T13:38:08Z</time>
      </trkpt>
      <trkpt lat="43.5168" lon="6.32082">
        <ele>338.9</ele>
        <time>2015-02-25T13:38:27Z</time>
      </trkpt>
      <trkpt lat="43.51678" lon="6.32106">
        <ele>339.3</ele>
        <time>2015-02-25T13:38:41Z</time>
      </trkpt>
      <trkpt lat="43.51677" lon="6.32131">
        <ele>339.6</ele>
        <time>2015-02-25T13:39:00Z</time>
      </trkpt>
      <trkpt lat="43.51678" lon="6.32155">
        <ele>341</ele>
        <time>2015-02-25T13:39:18Z</time>
      </trkpt>
      <trkpt lat="43.51681" lon="6.3218">
        <ele>341.5</ele>
        <time>2015-02-25T13:39:36Z</time>
      </trkpt>
      <trkpt lat="43.51685" lon="6.32201">
        <ele>342.9</ele>
        <time>2015-02-25T13:39:54Z</time>
      </trkpt>
      <trkpt lat="43.51692" lon="6.32223">
        <ele>343.7</ele>
        <time>2015-02-25T13:40:08Z</time>
      </trkpt>
      <trkpt lat="43.51697" lon="6.32246">
        <ele>344.5</ele>
        <time>2015-02-25T13:40:25Z</time>
      </trkpt>
      <trkpt lat="43.51707" lon="6.32266">
        <ele>346</ele>
        <time>2015-02-25T13:40:40Z</time>
      </trkpt>
      <trkpt lat="43.51723" lon="6.32277">
        <ele>346.8</ele>
        <time>2015-02-25T13:41:00Z</time>
      </trkpt>
      <trkpt lat="43.51736" lon="6.32294">
        <ele>348</ele>
        <time>2015-02-25T13:41:20Z</time>
      </trkpt>
      <trkpt lat="43.51748" lon="6.3231">
        <ele>349</ele>
        <time>2015-02-25T13:41:45Z</time>
      </trkpt>
      <trkpt lat="43.51763" lon="6.32323">
        <ele>349.8</ele>
        <time>2015-02-25T13:42:06Z</time>
      </trkpt>
      <trkpt lat="43.51775" lon="6.32341">
        <ele>349.9</ele>
        <time>2015-02-25T13:42:28Z</time>
      </trkpt>
      <trkpt lat="43.5177" lon="6.32365">
        <ele>349</ele>
        <time>2015-02-25T13:43:54Z</time>
      </trkpt>
      <trkpt lat="43.5176" lon="6.32384">
        <ele>349.8</ele>
        <time>2015-02-25T13:44:13Z</time>
      </trkpt>
      <trkpt lat="43.51749" lon="6.32403">
        <ele>351.2</ele>
        <time>2015-02-25T13:44:33Z</time>
      </trkpt>
      <trkpt lat="43.51745" lon="6.32427">
        <ele>351.9</ele>
        <time>2015-02-25T13:44:47Z</time>
      </trkpt>
      <trkpt lat="43.51739" lon="6.3245">
        <ele>352.8</ele>
        <time>2015-02-25T13:45:04Z</time>
      </trkpt>
      <trkpt lat="43.51741" lon="6.32474">
        <ele>352.6</ele>
        <time>2015-02-25T13:45:23Z</time>
      </trkpt>
      <trkpt lat="43.5175" lon="6.32495">
        <ele>353.5</ele>
        <time>2015-02-25T13:45:38Z</time>
      </trkpt>
      <trkpt lat="43.51754" lon="6.32518">
        <ele>353.1</ele>
        <time>2015-02-25T13:45:54Z</time>
      </trkpt>
      <trkpt lat="43.51754" lon="6.32542">
        <ele>352</ele>
        <time>2015-02-25T13:46:14Z</time>
      </trkpt>
      <trkpt lat="43.51749" lon="6.32566">
        <ele>351.3</ele>
        <time>2015-02-25T13:46:30Z</time>
      </trkpt>
      <trkpt lat="43.51743" lon="6.32589">
        <ele>350.5</ele>
        <time>2015-02-25T13:46:46Z</time>
      </trkpt>
      <trkpt lat="43.51735" lon="6.3261">
        <ele>349.9</ele>
        <time>2015-02-25T13:47:02Z</time>
      </trkpt>
      <trkpt lat="43.5173" lon="6.32632">
        <ele>349.7</ele>
        <time>2015-02-25T13:47:18Z</time>
      </trkpt>
      <trkpt lat="43.51712" lon="6.32629">
        <ele>348.8</ele>
        <time>2015-02-25T13:47:46Z</time>
      </trkpt>
      <trkpt lat="43.51703" lon="6.32608">
        <ele>347.7</ele>
        <time>2015-02-25T13:48:00Z</time>
      </trkpt>
      <trkpt lat="43.51694" lon="6.32589">
        <ele>346.8</ele>
        <time>2015-02-25T13:48:14Z</time>
      </trkpt>
      <trkpt lat="43.5168" lon="6.32573">
        <ele>345.6</ele>
        <time>2015-02-25T13:48:30Z</time>
      </trkpt>
      <trkpt lat="43.51663" lon="6.32565">
        <ele>346.1</ele>
        <time>2015-02-25T13:48:46Z</time>
      </trkpt>
      <trkpt lat="43.51646" lon="6.32563">
        <ele>346.1</ele>
        <time>2015-02-25T13:49:03Z</time>
      </trkpt>
      <trkpt lat="43.51629" lon="6.32555">
        <ele>345.5</ele>
        <time>2015-02-25T13:49:19Z</time>
      </trkpt>
      <trkpt lat="43.51615" lon="6.32539">
        <ele>345.5</ele>
        <time>2015-02-25T13:49:35Z</time>
      </trkpt>
      <trkpt lat="43.51598" lon="6.32532">
        <ele>344.7</ele>
        <time>2015-02-25T13:49:51Z</time>
      </trkpt>
      <trkpt lat="43.51582" lon="6.32521">
        <ele>344.2</ele>
        <time>2015-02-25T13:50:06Z</time>
      </trkpt>
      <trkpt lat="43.51566" lon="6.3251">
        <ele>343.2</ele>
        <time>2015-02-25T13:50:21Z</time>
      </trkpt>
      <trkpt lat="43.51553" lon="6.32496">
        <ele>343.2</ele>
        <time>2015-02-25T13:50:35Z</time>
      </trkpt>
      <trkpt lat="43.51541" lon="6.32478">
        <ele>342.6</ele>
        <time>2015-02-25T13:50:48Z</time>
      </trkpt>
      <trkpt lat="43.51533" lon="6.32457">
        <ele>342.8</ele>
        <time>2015-02-25T13:51:06Z</time>
      </trkpt>
      <trkpt lat="43.51521" lon="6.3244">
        <ele>341.9</ele>
        <time>2015-02-25T13:51:22Z</time>
      </trkpt>
      <trkpt lat="43.51511" lon="6.32421">
        <ele>341.7</ele>
        <time>2015-02-25T13:51:34Z</time>
      </trkpt>
      <trkpt lat="43.51503" lon="6.32401">
        <ele>341.7</ele>
        <time>2015-02-25T13:51:47Z</time>
      </trkpt>
      <trkpt lat="43.51493" lon="6.32381">
        <ele>340.8</ele>
        <time>2015-02-25T13:52:03Z</time>
      </trkpt>
      <trkpt lat="43.51487" lon="6.32359">
        <ele>339.8</ele>
        <time>2015-02-25T13:52:19Z</time>
      </trkpt>
      <trkpt lat="43.51478" lon="6.32339">
        <ele>339.2</ele>
        <time>2015-02-25T13:52:35Z</time>
      </trkpt>
      <trkpt lat="43.51472" lon="6.32315">
        <ele>338.1</ele>
        <time>2015-02-25T13:52:56Z</time>
      </trkpt>
      <trkpt lat="43.51466" lon="6.32293">
        <ele>338.4</ele>
        <time>2015-02-25T13:53:11Z</time>
      </trkpt>
      <trkpt lat="43.51457" lon="6.32272">
        <ele>337.6</ele>
        <time>2015-02-25T13:53:28Z</time>
      </trkpt>
      <trkpt lat="43.5145" lon="6.3225">
        <ele>337.7</ele>
        <time>2015-02-25T13:53:43Z</time>
      </trkpt>
      <trkpt lat="43.51433" lon="6.32243">
        <ele>337.5</ele>
        <time>2015-02-25T13:54:03Z</time>
      </trkpt>
      <trkpt lat="43.51428" lon="6.3222">
        <ele>337.3</ele>
        <time>2015-02-25T13:54:23Z</time>
      </trkpt>
      <trkpt lat="43.51417" lon="6.32201">
        <ele>338.1</ele>
        <time>2015-02-25T13:54:46Z</time>
      </trkpt>
      <trkpt lat="43.51405" lon="6.32185">
        <ele>338.1</ele>
        <time>2015-02-25T13:54:58Z</time>
      </trkpt>
      <trkpt lat="43.51392" lon="6.3217">
        <ele>338.4</ele>
        <time>2015-02-25T13:55:13Z</time>
      </trkpt>
      <trkpt lat="43.51379" lon="6.32153">
        <ele>338.1</ele>
        <time>2015-02-25T13:55:28Z</time>
      </trkpt>
      <trkpt lat="43.51362" lon="6.32144">
        <ele>337.3</ele>
        <time>2015-02-25T13:55:44Z</time>
      </trkpt>
      <trkpt lat="43.51346" lon="6.32143">
        <ele>336.3</ele>
        <time>2015-02-25T13:55:59Z</time>
      </trkpt>
      <trkpt lat="43.51328" lon="6.32144">
        <ele>334.8</ele>
        <time>2015-02-25T13:56:17Z</time>
      </trkpt>
      <trkpt lat="43.51312" lon="6.32149">
        <ele>333.9</ele>
        <time>2015-02-25T13:56:32Z</time>
      </trkpt>
      <trkpt lat="43.51295" lon="6.3215">
        <ele>332.6</ele>
        <time>2015-02-25T13:56:47Z</time>
      </trkpt>
      <trkpt lat="43.51277" lon="6.32155">
        <ele>332.2</ele>
        <time>2015-02-25T13:57:04Z</time>
      </trkpt>
      <trkpt lat="43.5126" lon="6.3216">
        <ele>330</ele>
        <time>2015-02-25T13:57:25Z</time>
      </trkpt>
      <trkpt lat="43.51243" lon="6.32158">
        <ele>329.3</ele>
        <time>2015-02-25T13:57:40Z</time>
      </trkpt>
      <trkpt lat="43.51227" lon="6.32162">
        <ele>327.5</ele>
        <time>2015-02-25T13:58:00Z</time>
      </trkpt>
      <trkpt lat="43.51209" lon="6.32161">
        <ele>325.7</ele>
        <time>2015-02-25T13:58:17Z</time>
      </trkpt>
      <trkpt lat="43.51193" lon="6.32167">
        <ele>323.5</ele>
        <time>2015-02-25T13:58:39Z</time>
      </trkpt>
      <trkpt lat="43.51175" lon="6.32169">
        <ele>320.8</ele>
        <time>2015-02-25T13:58:58Z</time>
      </trkpt>
      <trkpt lat="43.51158" lon="6.32167">
        <ele>320.1</ele>
        <time>2015-02-25T13:59:17Z</time>
      </trkpt>
      <trkpt lat="43.51142" lon="6.32175">
        <ele>319.1</ele>
        <time>2015-02-25T13:59:32Z</time>
      </trkpt>
      <trkpt lat="43.51124" lon="6.32181">
        <ele>318.1</ele>
        <time>2015-02-25T13:59:51Z</time>
      </trkpt>
      <trkpt lat="43.51107" lon="6.32184">
        <ele>317.8</ele>
        <time>2015-02-25T14:00:07Z</time>
      </trkpt>
      <trkpt lat="43.51091" lon="6.32174">
        <ele>318.6</ele>
        <time>2015-02-25T14:00:22Z</time>
      </trkpt>
      <trkpt lat="43.51079" lon="6.32156">
        <ele>319.7</ele>
        <time>2015-02-25T14:00:37Z</time>
      </trkpt>
      <trkpt lat="43.51071" lon="6.32134">
        <ele>320.2</ele>
        <time>2015-02-25T14:00:52Z</time>
      </trkpt>
      <trkpt lat="43.51062" lon="6.32114">
        <ele>321</ele>
        <time>2015-02-25T14:01:09Z</time>
      </trkpt>
      <trkpt lat="43.51053" lon="6.32095">
        <ele>320.4</ele>
        <time>2015-02-25T14:01:23Z</time>
      </trkpt>
      <trkpt lat="43.51044" lon="6.32075">
        <ele>320.5</ele>
        <time>2015-02-25T14:01:37Z</time>
      </trkpt>
      <trkpt lat="43.51034" lon="6.32055">
        <ele>320.2</ele>
        <time>2015-02-25T14:01:53Z</time>
      </trkpt>
      <trkpt lat="43.51028" lon="6.32032">
        <ele>319.3</ele>
        <time>2015-02-25T14:02:08Z</time>
      </trkpt>
      <trkpt lat="43.51019" lon="6.32012">
        <ele>319</ele>
        <time>2015-02-25T14:02:23Z</time>
      </trkpt>
      <trkpt lat="43.5101" lon="6.31991">
        <ele>317.3</ele>
        <time>2015-02-25T14:02:38Z</time>
      </trkpt>
      <trkpt lat="43.51001" lon="6.31971">
        <ele>317.3</ele>
        <time>2015-02-25T14:02:56Z</time>
      </trkpt>
      <trkpt lat="43.50998" lon="6.31949">
        <ele>318</ele>
        <time>2015-02-25T14:03:11Z</time>
      </trkpt>
      <trkpt lat="43.50989" lon="6.31928">
        <ele>317.8</ele>
        <time>2015-02-25T14:03:23Z</time>
      </trkpt>
      <trkpt lat="43.50972" lon="6.31923">
        <ele>318</ele>
        <time>2015-02-25T14:03:40Z</time>
      </trkpt>
      <trkpt lat="43.50955" lon="6.31916">
        <ele>317.7</ele>
        <time>2015-02-25T14:03:55Z</time>
      </trkpt>
      <trkpt lat="43.50939" lon="6.31913">
        <ele>318.5</ele>
        <time>2015-02-25T14:04:10Z</time>
      </trkpt>
      <trkpt lat="43.50921" lon="6.31909">
        <ele>318.6</ele>
        <time>2015-02-25T14:04:24Z</time>
      </trkpt>
      <trkpt lat="43.50904" lon="6.31903">
        <ele>318.4</ele>
        <time>2015-02-25T14:04:39Z</time>
      </trkpt>
      <trkpt lat="43.50887" lon="6.31899">
        <ele>317.7</ele>
        <time>2015-02-25T14:04:58Z</time>
      </trkpt>
      <trkpt lat="43.50869" lon="6.31899">
        <ele>317.1</ele>
        <time>2015-02-25T14:05:13Z</time>
      </trkpt>
      <trkpt lat="43.50852" lon="6.31897">
        <ele>316.4</ele>
        <time>2015-02-25T14:05:28Z</time>
      </trkpt>
      <trkpt lat="43.50836" lon="6.3189">
        <ele>315.2</ele>
        <time>2015-02-25T14:05:47Z</time>
      </trkpt>
      <trkpt lat="43.50821" lon="6.31876">
        <ele>314.4</ele>
        <time>2015-02-25T14:06:05Z</time>
      </trkpt>
      <trkpt lat="43.50805" lon="6.3187">
        <ele>312.6</ele>
        <time>2015-02-25T14:06:24Z</time>
      </trkpt>
      <trkpt lat="43.50788" lon="6.31862">
        <ele>311.4</ele>
        <time>2015-02-25T14:06:42Z</time>
      </trkpt>
      <trkpt lat="43.50774" lon="6.31847">
        <ele>310.4</ele>
        <time>2015-02-25T14:07:00Z</time>
      </trkpt>
      <trkpt lat="43.50764" lon="6.31828">
        <ele>308.2</ele>
        <time>2015-02-25T14:07:23Z</time>
      </trkpt>
      <trkpt lat="43.50755" lon="6.31807">
        <ele>306.8</ele>
        <time>2015-02-25T14:07:38Z</time>
      </trkpt>
      <trkpt lat="43.50745" lon="6.31787">
        <ele>306.4</ele>
        <time>2015-02-25T14:07:59Z</time>
      </trkpt>
      <trkpt lat="43.50734" lon="6.31769">
        <ele>305.5</ele>
        <time>2015-02-25T14:08:16Z</time>
      </trkpt>
      <trkpt lat="43.5072" lon="6.31755">
        <ele>304.3</ele>
        <time>2015-02-25T14:08:37Z</time>
      </trkpt>
      <trkpt lat="43.50708" lon="6.31737">
        <ele>302.9</ele>
        <time>2015-02-25T14:08:53Z</time>
      </trkpt>
      <trkpt lat="43.50694" lon="6.31725">
        <ele>301.6</ele>
        <time>2015-02-25T14:09:11Z</time>
      </trkpt>
      <trkpt lat="43.50677" lon="6.31727">
        <ele>300.6</ele>
        <time>2015-02-25T14:09:29Z</time>
      </trkpt>
      <trkpt lat="43.50659" lon="6.31723">
        <ele>300</ele>
        <time>2015-02-25T14:09:53Z</time>
      </trkpt>
      <trkpt lat="43.50644" lon="6.31713">
        <ele>298.1</ele>
        <time>2015-02-25T14:10:16Z</time>
      </trkpt>
      <trkpt lat="43.50626" lon="6.31714">
        <ele>295.3</ele>
        <time>2015-02-25T14:10:43Z</time>
      </trkpt>
      <trkpt lat="43.50608" lon="6.31716">
        <ele>292.7</ele>
        <time>2015-02-25T14:11:01Z</time>
      </trkpt>
      <trkpt lat="43.50606" lon="6.31692">
        <ele>289.5</ele>
        <time>2015-02-25T14:11:30Z</time>
      </trkpt>
      <trkpt lat="43.50608" lon="6.31668">
        <ele>288.3</ele>
        <time>2015-02-25T14:11:48Z</time>
      </trkpt>
      <trkpt lat="43.50608" lon="6.31644">
        <ele>286.3</ele>
        <time>2015-02-25T14:12:09Z</time>
      </trkpt>
      <trkpt lat="43.50609" lon="6.31621">
        <ele>284.6</ele>
        <time>2015-02-25T14:12:30Z</time>
      </trkpt>
      <trkpt lat="43.50615" lon="6.31598">
        <ele>284.7</ele>
        <time>2015-02-25T14:12:42Z</time>
      </trkpt>
      <trkpt lat="43.50614" lon="6.31575">
        <ele>282.6</ele>
        <time>2015-02-25T14:13:02Z</time>
      </trkpt>
      <trkpt lat="43.50618" lon="6.31551">
        <ele>280.8</ele>
        <time>2015-02-25T14:13:25Z</time>
      </trkpt>
      <trkpt lat="43.50613" lon="6.31527">
        <ele>277.8</ele>
        <time>2015-02-25T14:13:46Z</time>
      </trkpt>
      <trkpt lat="43.5062" lon="6.31507">
        <ele>277.1</ele>
        <time>2015-02-25T14:14:03Z</time>
      </trkpt>
      <trkpt lat="43.50625" lon="6.31483">
        <ele>274.5</ele>
        <time>2015-02-25T14:14:22Z</time>
      </trkpt>
      <trkpt lat="43.5063" lon="6.3146">
        <ele>273.6</ele>
        <time>2015-02-25T14:14:38Z</time>
      </trkpt>
      <trkpt lat="43.50625" lon="6.31437">
        <ele>273.3</ele>
        <time>2015-02-25T14:14:56Z</time>
      </trkpt>
      <trkpt lat="43.50612" lon="6.31421">
        <ele>271.7</ele>
        <time>2015-02-25T14:15:14Z</time>
      </trkpt>
      <trkpt lat="43.506" lon="6.31405">
        <ele>269.3</ele>
        <time>2015-02-25T14:15:31Z</time>
      </trkpt>
      <trkpt lat="43.50585" lon="6.31393">
        <ele>267.2</ele>
        <time>2015-02-25T14:15:46Z</time>
      </trkpt>
      <trkpt lat="43.50568" lon="6.31395">
        <ele>265.8</ele>
        <time>2015-02-25T14:16:06Z</time>
      </trkpt>
      <trkpt lat="43.50553" lon="6.31408">
        <ele>265.6</ele>
        <time>2015-02-25T14:16:20Z</time>
      </trkpt>
      <trkpt lat="43.50541" lon="6.31425">
        <ele>265.2</ele>
        <time>2015-02-25T14:16:35Z</time>
      </trkpt>
      <trkpt lat="43.50529" lon="6.31442">
        <ele>264.6</ele>
        <time>2015-02-25T14:16:56Z</time>
      </trkpt>
      <trkpt lat="43.50516" lon="6.31458">
        <ele>263.8</ele>
        <time>2015-02-25T14:17:10Z</time>
      </trkpt>
      <trkpt lat="43.50511" lon="6.31481">
        <ele>263.4</ele>
        <time>2015-02-25T14:17:25Z</time>
      </trkpt>
      <trkpt lat="43.50504" lon="6.31502">
        <ele>262.6</ele>
        <time>2015-02-25T14:17:39Z</time>
      </trkpt>
      <trkpt lat="43.50495" lon="6.31523">
        <ele>261.5</ele>
        <time>2015-02-25T14:17:54Z</time>
      </trkpt>
      <trkpt lat="43.50483" lon="6.31542">
        <ele>260.9</ele>
        <time>2015-02-25T14:18:10Z</time>
      </trkpt>
      <trkpt lat="43.50473" lon="6.31559">
        <ele>259.3</ele>
        <time>2015-02-25T14:18:29Z</time>
      </trkpt>
      <trkpt lat="43.50461" lon="6.31576">
        <ele>259</ele>
        <time>2015-02-25T14:18:41Z</time>
      </trkpt>
      <trkpt lat="43.50452" lon="6.31596">
        <ele>258.2</ele>
        <time>2015-02-25T14:18:55Z</time>
      </trkpt>
      <trkpt lat="43.50443" lon="6.31616">
        <ele>257.3</ele>
        <time>2015-02-25T14:19:09Z</time>
      </trkpt>
      <trkpt lat="43.50431" lon="6.31634">
        <ele>256.6</ele>
        <time>2015-02-25T14:19:23Z</time>
      </trkpt>
      <trkpt lat="43.5042" lon="6.31652">
        <ele>255.8</ele>
        <time>2015-02-25T14:19:40Z</time>
      </trkpt>
      <trkpt lat="43.50405" lon="6.31664">
        <ele>254.9</ele>
        <time>2015-02-25T14:19:54Z</time>
      </trkpt>
      <trkpt lat="43.50388" lon="6.31674">
        <ele>254.1</ele>
        <time>2015-02-25T14:20:13Z</time>
      </trkpt>
      <trkpt lat="43.50372" lon="6.31666">
        <ele>252.2</ele>
        <time>2015-02-25T14:20:50Z</time>
      </trkpt>
      <trkpt lat="43.50364" lon="6.31662">
        <ele>252.6</ele>
        <time>2015-02-25T14:22:39Z</time>
      </trkpt>
      <trkpt lat="43.50364" lon="6.31662">
        <ele>252.6</ele>
        <time>2015-02-25T14:22:39Z</time>
      </trkpt>
      <trkpt lat="43.50364" lon="6.31662">
        <ele>252.5</ele>
        <time>2015-02-25T14:22:39Z</time>
      </trkpt>
      <trkpt lat="43.50363" lon="6.31662">
        <ele>253</ele>
        <time>2015-02-25T14:22:51Z</time>
      </trkpt>
    </trkseg>
  </trk>
</gpx>